createdAt,value
2022-10-31T00:04:37.754Z,36.1
2022-10-31T00:09:38.048Z,36
2022-10-31T00:14:38.343Z,36
2022-10-31T00:19:38.639Z,36
2022-10-31T00:24:38.941Z,35.9
2022-10-31T00:29:39.250Z,35.9
2022-10-31T00:34:39.526Z,35.9
2022-10-31T00:39:39.840Z,35.9
2022-10-31T00:44:40.174Z,35.9
2022-10-31T00:49:40.680Z,35.8
2022-10-31T00:54:41.201Z,35.8
2022-10-31T00:59:41.516Z,35.8
2022-10-31T01:04:42.041Z,35.7
2022-10-31T01:09:42.325Z,35.7
2022-10-31T01:14:42.628Z,35.7
2022-10-31T01:19:42.964Z,35.7
2022-10-31T01:24:43.237Z,35.7
2022-10-31T01:29:43.486Z,35.7
2022-10-31T01:34:43.764Z,35.6
2022-10-31T01:39:44.078Z,35.6
2022-10-31T01:44:44.354Z,35.6
2022-10-31T01:49:44.620Z,35.6
2022-10-31T01:54:45.108Z,35.6
2022-10-31T01:59:45.437Z,35.5
2022-10-31T02:04:45.715Z,35.5
2022-10-31T02:09:46.023Z,35.5
2022-10-31T02:14:46.314Z,35.4
2022-10-31T02:19:46.604Z,35.4
2022-10-31T02:24:46.922Z,35.4
2022-10-31T02:29:48.051Z,35.4
2022-10-31T02:34:48.576Z,35.4
2022-10-31T02:39:48.863Z,35.4
2022-10-31T02:44:49.130Z,35.3
2022-10-31T02:49:49.455Z,35.3
2022-10-31T02:54:49.724Z,35.3
2022-10-31T02:59:50.044Z,35.3
2022-10-31T03:04:50.335Z,35.2
2022-10-31T03:09:50.594Z,35.2
2022-10-31T03:14:50.858Z,35.2
2022-10-31T03:19:51.403Z,35.2
2022-10-31T03:24:51.679Z,35.2
2022-10-31T03:29:51.938Z,35.2
2022-10-31T03:34:52.196Z,35.1
2022-10-31T03:39:52.694Z,35.1
2022-10-31T03:44:53.223Z,35.1
2022-10-31T03:49:53.680Z,35.1
2022-10-31T03:54:54.173Z,35.1
2022-10-31T03:59:55.262Z,35.1
2022-10-31T04:04:55.527Z,35
2022-10-31T04:09:55.809Z,35
2022-10-31T04:14:56.089Z,35
2022-10-31T04:19:56.610Z,35
2022-10-31T04:24:56.850Z,34.9
2022-10-31T04:29:57.100Z,34.9
2022-10-31T04:34:57.635Z,34.9
2022-10-31T04:39:58.123Z,34.9
2022-10-31T04:44:58.356Z,34.9
2022-10-31T04:49:58.605Z,34.9
2022-10-31T04:54:58.837Z,34.8
2022-10-31T04:59:59.076Z,34.8
2022-10-31T05:04:59.301Z,34.8
2022-10-31T05:09:59.520Z,34.7
2022-10-31T05:14:59.739Z,34.7
2022-10-31T05:19:59.977Z,34.7
2022-10-31T05:25:00.197Z,34.7
2022-10-31T05:35:00.647Z,34.7
2022-10-31T05:40:03.775Z,34.7
2022-10-31T05:45:07.467Z,34.6
2022-10-31T05:50:07.708Z,34.6
2022-10-31T05:55:08.001Z,34.6
2022-10-31T06:00:08.220Z,34.6
2022-10-31T06:05:08.493Z,34.6
2022-10-31T06:10:08.870Z,34.6
2022-10-31T06:15:09.144Z,34.6
2022-10-31T06:20:09.417Z,34.5
2022-10-31T06:25:09.665Z,34.5
2022-10-31T06:30:09.939Z,34.5
2022-10-31T06:35:10.206Z,34.4
2022-10-31T06:40:10.655Z,34.4
2022-10-31T06:45:11.115Z,34.4
2022-10-31T06:50:11.331Z,34.4
2022-10-31T06:55:12.445Z,34.4
2022-10-31T07:00:12.665Z,34.4
2022-10-31T07:05:12.876Z,34.4
2022-10-31T07:15:13.608Z,34.3
2022-10-31T07:20:14.051Z,34.3
2022-10-31T07:25:14.274Z,34.3
2022-10-31T07:30:14.528Z,34.2
2022-10-31T07:35:14.783Z,34.2
2022-10-31T07:40:14.997Z,34.2
2022-10-31T07:45:15.253Z,34.2
2022-10-31T07:50:15.464Z,34.2
2022-10-31T07:55:15.699Z,34.2
2022-10-31T08:00:15.916Z,34.2
2022-10-31T08:05:16.361Z,34.1
2022-10-31T08:10:16.832Z,34.1
2022-10-31T08:15:17.067Z,33
2022-10-31T08:20:17.249Z,32.8
2022-10-31T08:25:17.478Z,32.7
2022-10-31T08:30:17.654Z,32.7
2022-10-31T08:35:17.952Z,32.7
2022-10-31T08:40:18.122Z,32.7
2022-10-31T08:45:18.331Z,32.7
2022-10-31T08:50:18.537Z,32.6
2022-10-31T08:55:18.743Z,32.6
2022-10-31T09:00:19.791Z,32.6
2022-10-31T09:05:20.833Z,32.6
2022-10-31T09:10:21.023Z,32.6
2022-10-31T09:15:21.218Z,32.6
2022-10-31T09:20:21.394Z,32.6
2022-10-31T09:25:21.561Z,32.6
2022-10-31T09:30:21.780Z,32.6
2022-10-31T09:35:23.198Z,32.5
2022-10-31T09:40:25.955Z,32.4
2022-10-31T09:45:26.172Z,32.4
2022-10-31T09:50:26.352Z,32.4
2022-10-31T09:55:28.203Z,32.4
2022-10-31T10:00:28.436Z,32.4
2022-10-31T10:05:28.699Z,32.4
2022-10-31T10:10:28.867Z,32.4
2022-10-31T10:15:29.037Z,32.3
2022-10-31T10:20:29.241Z,32.3
2022-10-31T10:25:29.447Z,32.3
2022-10-31T10:30:29.614Z,32.3
2022-10-31T10:35:29.787Z,32.3
2022-10-31T10:40:29.969Z,32.3
2022-10-31T10:45:30.172Z,32.3
2022-10-31T10:50:30.341Z,32.2
2022-10-31T10:55:32.159Z,32.2
2022-10-31T11:00:32.665Z,32.2
2022-10-31T11:05:32.968Z,32.2
2022-10-31T11:10:33.168Z,32.2
2022-10-31T11:15:33.347Z,32.2
2022-10-31T11:20:33.531Z,32.2
2022-10-31T11:25:33.727Z,32.2
2022-10-31T11:30:33.908Z,32.2
2022-10-31T11:35:34.127Z,32.2
2022-10-31T11:40:34.468Z,32.2
2022-10-31T11:45:34.648Z,32.2
2022-10-31T11:50:34.858Z,32.2
2022-10-31T11:55:35.036Z,32.1
2022-10-31T12:00:35.245Z,32.1
2022-10-31T12:05:35.408Z,32.1
2022-10-31T12:10:35.611Z,32.1
2022-10-31T12:15:37.492Z,32.1
2022-10-31T12:20:37.649Z,32
2022-10-31T12:25:39.140Z,32
2022-10-31T12:30:39.367Z,32
2022-10-31T12:40:41.363Z,31.9
2022-10-31T12:45:43.229Z,31.9
2022-10-31T12:50:45.064Z,31.9
2022-10-31T12:55:46.906Z,31.9
2022-10-31T13:00:48.842Z,31.9
2022-10-31T13:05:50.789Z,31.9
2022-10-31T13:10:52.884Z,31.9
2022-10-31T13:15:54.754Z,31.9
2022-10-31T13:20:56.575Z,31.9
2022-10-31T13:25:58.600Z,31.9
2022-10-31T13:31:00.442Z,31.9
2022-10-31T13:36:02.240Z,31.8
2022-10-31T13:41:04.043Z,31.8
2022-10-31T13:46:05.900Z,31.8
2022-10-31T13:51:07.712Z,31.8
2022-10-31T13:56:09.526Z,31.8
2022-10-31T14:01:11.538Z,31.7
2022-10-31T14:06:13.398Z,31.7
2022-10-31T14:11:15.231Z,31.6
2022-10-31T14:16:17.177Z,31.6
2022-10-31T14:21:18.951Z,31.6
2022-10-31T14:26:20.747Z,31.6
2022-10-31T14:31:22.582Z,31.6
2022-10-31T14:36:24.376Z,31.6
2022-10-31T14:41:28.067Z,31.6
2022-10-31T14:46:32.664Z,31.6
2022-10-31T14:51:34.472Z,31.6
2022-10-31T14:56:36.271Z,31.6
2022-10-31T15:01:38.273Z,31.6
2022-10-31T15:06:40.260Z,31.6
2022-10-31T15:11:42.042Z,31.6
2022-10-31T15:16:43.870Z,31.6
2022-10-31T15:21:45.674Z,31.5
2022-10-31T15:26:47.713Z,31.5
2022-10-31T15:31:48.742Z,31.5
2022-10-31T15:36:50.547Z,31.5
2022-10-31T15:41:54.653Z,31.5
2022-10-31T15:46:56.025Z,31.4
2022-10-31T15:57:00.614Z,31.4
2022-10-31T16:02:03.061Z,31.4
2022-10-31T16:07:04.942Z,31.4
2022-10-31T16:12:06.720Z,31.4
2022-10-31T16:17:08.506Z,31.4
2022-10-31T16:22:10.316Z,31.4
2022-10-31T16:27:12.071Z,31.4
2022-10-31T16:32:14.140Z,31.3
2022-10-31T16:37:15.938Z,31.3
2022-10-31T16:42:17.792Z,31.3
2022-10-31T16:47:20.300Z,31.2
2022-10-31T16:52:23.935Z,31.2
2022-10-31T16:57:25.752Z,31.2
2022-10-31T17:02:27.917Z,31.2
2022-10-31T17:07:29.102Z,31.2
2022-10-31T17:12:30.913Z,31.2
2022-10-31T17:17:32.732Z,31.2
2022-10-31T17:22:34.561Z,31.2
2022-10-31T17:27:36.382Z,31.2
2022-10-31T17:32:38.454Z,31.2
2022-10-31T17:37:40.261Z,31.2
2022-10-31T17:42:42.036Z,31.2
2022-10-31T17:47:43.840Z,31.2
2022-10-31T17:52:45.646Z,31.9
2022-10-31T17:57:46.084Z,35.5
2022-10-31T18:02:46.429Z,38.4
2022-10-31T18:07:47.059Z,41
2022-10-31T18:12:47.506Z,43.8
2022-10-31T18:17:48.064Z,46.6
2022-10-31T18:22:48.979Z,48.5
2022-10-31T18:27:49.673Z,49.2
2022-10-31T18:32:50.399Z,49.8
2022-10-31T18:37:51.171Z,49.7
2022-10-31T18:42:51.891Z,49.4
2022-10-31T18:47:52.586Z,49.2
2022-10-31T18:52:53.327Z,48.9
2022-10-31T18:57:54.063Z,48.7
2022-10-31T19:02:56.565Z,48.5
2022-10-31T19:07:57.348Z,48.4
2022-10-31T19:12:58.237Z,48.4
2022-10-31T19:17:59.057Z,48.3
2022-10-31T19:23:00.121Z,48.3
2022-10-31T19:28:01.247Z,48.3
2022-10-31T19:33:02.086Z,48.2
2022-10-31T19:38:03.134Z,48.1
2022-10-31T19:43:04.166Z,48.1
2022-10-31T19:48:05.894Z,48.1
2022-10-31T19:53:06.616Z,48
2022-10-31T19:58:08.169Z,47.9
2022-10-31T20:03:09.013Z,47.8
2022-10-31T20:08:09.625Z,47.7
2022-10-31T20:13:10.150Z,47.7
2022-10-31T20:18:10.785Z,47.6
2022-10-31T20:23:11.614Z,47.6
2022-10-31T20:28:12.294Z,47.6
2022-10-31T20:33:13.189Z,47.5
2022-10-31T20:38:13.785Z,47.1
2022-10-31T20:43:14.366Z,47
2022-10-31T20:48:15.021Z,46.9
2022-10-31T20:53:15.642Z,46.9
2022-10-31T20:58:16.246Z,46.8
2022-10-31T21:03:16.860Z,46.7
2022-10-31T21:08:17.519Z,46.7
2022-10-31T21:13:18.150Z,46.6
2022-10-31T21:18:18.748Z,46.6
2022-10-31T21:23:19.602Z,46.5
2022-10-31T21:28:20.259Z,46.4
2022-10-31T21:33:20.859Z,46.3
2022-10-31T21:38:21.509Z,46.2
2022-10-31T21:43:22.140Z,46.2
2022-10-31T21:48:22.728Z,46.1
2022-10-31T21:53:23.521Z,46.1
2022-10-31T21:58:24.125Z,46
2022-10-31T22:03:24.724Z,45.9
2022-10-31T22:08:25.298Z,45.9
2022-10-31T22:13:25.863Z,45.8
2022-10-31T22:18:26.508Z,45.8
2022-10-31T22:23:27.170Z,45.7
2022-10-31T22:28:27.765Z,45.6
2022-10-31T22:33:28.353Z,45.6
2022-10-31T22:38:28.966Z,45.5
2022-10-31T22:43:29.558Z,45.4
2022-10-31T22:48:30.156Z,45.4
2022-10-31T22:53:30.724Z,45.3
2022-10-31T22:58:31.280Z,45.2
2022-10-31T23:03:31.881Z,45.2
2022-10-31T23:08:32.464Z,45.1
2022-10-31T23:13:33.055Z,45.1
2022-10-31T23:18:48.868Z,45
2022-10-31T23:23:49.773Z,44.9
2022-10-31T23:28:50.319Z,44.9
2022-10-31T23:33:50.864Z,44.8
2022-10-31T23:38:51.405Z,44.7
2022-10-31T23:43:52.051Z,44.7
2022-10-31T23:48:52.660Z,44.6
2022-10-31T23:53:53.425Z,44.6
2022-10-31T23:58:53.987Z,44.5
